Aérodrome :
LOGIN :

S'inscrire | Disclaimer

   EN    FR    IT 

 










Légende :    VFR   VFR Marginal   IFR   IFR Intensif   IFR Très Intensif
Visi : 
Plafond : 
>= 8 km
>= 3000ft
5 à 8 km
1000 à 3000 ft
1500m à 5 km
500 à 1000 ft
800 à 1500m
200 à 500 ft
< 800m
< 200 ft
Symboles :   Orages  Brouillard  Fortes neiges  Fortes précipitations  Vent > 20 kt
SIGMETs :   Divers  Orages  Givrage  Turbulence  Onde Orograph.  Cendres Volcan.







- Altitude de l'aérodrome : 1043 ft
- Code IATA : SLD


LZSL - Sliac

DERNIER METAR :
  • 202130Z 07003KT CAVOK 13/11 Q1022

METARs EXPIRÉS :
  • 202100Z 06003KT CAVOK 14/11 Q1022
  • 202030Z 06003KT 9999 FEW046 SCT068 14/12 Q1022
  • 202000Z 10004KT 9999 BKN062 15/11 Q1022
  • 201930Z 07005KT 040V100 9999 SCT058 BKN075 15/11 Q1022
  • 201900Z 06005KT 040V110 9999 -SHRA FEW048CB BKN063 15/11 Q1021
  • 201830Z 05009KT 9999 -SHRA FEW045CB BKN065 16/10 Q1021

TAF TAF LZSL
Valide du 20 à 21h jusqu'au 21 à 06h UTC


202000Z 2021/2106 04005KT 9999 SCT045 SCT080
BECMG 2021/2023 35004KT CAVOK
Pas de NOTAMs connus pour ce terrain.



MET'MAP, la Météo Aéronautique d'un coup d'oeil ! - Copyright ORBIFLY Décembre 2007 - Disclaimer

ORBIFLY MET'MAP TEAM :

Programmation & Développement : Alexandra Zaïnal
Conception & Développement : Baudouin d'Aumeries
Co-Programmation & Développement : Marc-Olivier Méhu
Soutien technique & logistique : Manuel Goepfert

Contact : metmap@orbifly.com




SOURCES & CREDITS :

   NOAA